»·PEaware :: N50TP KBUR-KLAS

N50TP :: KBUR-KLAS

FLIGHT INFORMATION

Flight Status: Arrived
Operator: Privately registered:
United States
More flights under this callsign
Pilot: Tysen P. (33868)
Aircraft: Cessna 525C Citation CJ4
(C25C)
More flights by this aircraft type
Origin: KBUR Bob Hope-Burbank
United States
Destination: KLAS McCarran Intl
United States
More flights between these airports :: More routes between these airports
Route: SLAPP2 MISEN KEPEC6
File this flight plan on PilotEdge
Remarks: REQ / I-5 Check
Altitude:
(Current/Filed)
15,000ft
Speed:
(Current/Filed)
300kts
Departed: 20-Feb-21 09:49 AM
Arrived: 20-Feb-21 10:50 AM
Distance/Time
Traveled:
193nm/1:01
Distance/Time
To Go:
Arrived

Flight Plot

Page will automatically refresh every two minutes.

Flight plan parsing failed; only flown route is shown


Map Options




Map Legend


Flown Route
Filed Route
Departure Airport
Arrival Airport
Navaid (VOR, NDB)
Fix

Horizontal Profiles

Position Reports

Time Latitude Longitude Heading Altitude Ground
Speed
20-Feb-21 09:29 34.196201 -118.359572 180 712ft 0kts
20-Feb-21 09:30 34.196201 -118.359572 180 712ft 0kts
20-Feb-21 09:31 34.196201 -118.359572 180 712ft 0kts
20-Feb-21 09:32 34.196201 -118.359572 180 712ft 0kts
20-Feb-21 09:33 34.196201 -118.359572 180 712ft 0kts
20-Feb-21 09:34 34.196201 -118.359572 180 712ft 0kts
20-Feb-21 09:35 34.196201 -118.359572 180 712ft 0kts
20-Feb-21 09:36 34.196201 -118.359572 180 712ft 0kts
20-Feb-21 09:37 34.196201 -118.359572 180 712ft 0kts
20-Feb-21 09:38 34.196201 -118.359572 180 712ft 0kts
20-Feb-21 09:39 34.196201 -118.359572 180 712ft 0kts
20-Feb-21 09:40 34.196201 -118.359572 180 712ft 0kts
20-Feb-21 09:41 34.196201 -118.359572 180 712ft 0kts
20-Feb-21 09:42 34.196201 -118.359572 180 712ft 0kts
20-Feb-21 09:43 34.196201 -118.359572 180 712ft 0kts
20-Feb-21 09:44 34.196798 -118.360060 290 714ft 15kts
20-Feb-21 09:45 34.196965 -118.368698 289 729ft 5kts
20-Feb-21 09:46 34.197067 -118.368868 322 729ft 0kts
20-Feb-21 09:47 34.197159 -118.368944 330 729ft 6kts
20-Feb-21 09:48 34.197814 -118.362240 91 716ft 122kts
20-Feb-21 09:49 34.167909 -118.352826 220 3572ft 238kts
20-Feb-21 09:50 34.123997 -118.400356 222 3772ft 210kts
20-Feb-21 09:51 34.080669 -118.448588 222 3791ft 215kts
20-Feb-21 09:52 34.036429 -118.497900 222 3790ft 219kts
20-Feb-21 09:53 34.049953 -118.545788 6 4225ft 225kts
20-Feb-21 09:54 34.112187 -118.530780 12 6004ft 229kts
20-Feb-21 09:55 34.175002 -118.513191 12 8303ft 239kts
20-Feb-21 09:56 34.238281 -118.476251 32 8775ft 269kts
20-Feb-21 09:57 34.302925 -118.427770 30 8790ft 277kts
20-Feb-21 09:58 34.369339 -118.379637 30 8790ft 282kts
20-Feb-21 09:59 34.438339 -118.342757 18 10741ft 261kts
20-Feb-21 10:00 34.507971 -118.289732 41 13636ft 343kts
20-Feb-21 10:01 34.581404 -118.213599 39 13931ft 347kts
20-Feb-21 10:02 34.653495 -118.141981 40 14738ft 340kts
20-Feb-21 10:03 34.681772 -118.033301 81 14786ft 352kts
20-Feb-21 10:04 34.696288 -117.914788 87 14785ft 356kts
20-Feb-21 10:05 34.702235 -117.794675 85 14785ft 354kts
20-Feb-21 10:06 34.707750 -117.676659 88 14782ft 347kts
20-Feb-21 10:07 34.712104 -117.560195 87 14783ft 343kts
20-Feb-21 10:08 34.729033 -117.447063 70 14783ft 341kts
20-Feb-21 10:09 34.759632 -117.338371 72 14784ft 340kts
20-Feb-21 10:10 34.788581 -117.228866 72 14784ft 339kts
20-Feb-21 10:11 34.817628 -117.119446 72 14785ft 339kts
20-Feb-21 10:12 34.846265 -117.010416 72 14785ft 339kts
20-Feb-21 10:13 34.874910 -116.900865 72 14785ft 339kts
20-Feb-21 10:14 34.903384 -116.791565 72 14785ft 339kts
20-Feb-21 10:16 34.940770 -116.687408 54 14787ft 339kts
20-Feb-21 10:17 34.995673 -116.594116 56 14786ft 339kts
20-Feb-21 10:18 35.049076 -116.499170 55 14786ft 339kts
20-Feb-21 10:19 35.102528 -116.404205 54 14787ft 339kts
20-Feb-21 10:20 35.168423 -116.321787 44 14787ft 339kts
20-Feb-21 10:21 35.234075 -116.239010 45 14790ft 339kts
20-Feb-21 10:22 35.300197 -116.156390 45 14785ft 339kts
20-Feb-21 10:23 35.365301 -116.074338 45 13932ft 333kts
20-Feb-21 10:24 35.429019 -115.993797 45 13080ft 317kts
20-Feb-21 10:25 35.485445 -115.922356 45 12980ft 285kts
20-Feb-21 10:26 35.541670 -115.851028 46 12983ft 294kts
20-Feb-21 10:27 35.599027 -115.778060 46 12983ft 299kts
20-Feb-21 10:28 35.657230 -115.703804 46 12984ft 302kts
20-Feb-21 10:29 35.715774 -115.628753 46 12980ft 304kts
20-Feb-21 10:30 35.782417 -115.571040 2 12987ft 304kts
20-Feb-21 10:31 35.867186 -115.569630 3 12989ft 305kts
20-Feb-21 10:32 35.952316 -115.563826 8 12981ft 306kts
20-Feb-21 10:33 35.998412 -115.482772 71 12981ft 306kts
20-Feb-21 10:34 36.025468 -115.393505 68 11477ft 246kts
20-Feb-21 10:34 36.028297 -115.328326 97 10889ft 226kts
20-Feb-21 10:36 36.020845 -115.230530 95 10654ft 260kts
20-Feb-21 10:36 36.013408 -115.155134 98 10676ft 270kts
20-Feb-21 10:37 35.986242 -115.069987 121 10646ft 256kts
20-Feb-21 10:39 35.944813 -114.987095 122 7370ft 231kts
20-Feb-21 10:39 35.947359 -114.933209 27 5700ft 228kts
20-Feb-21 10:41 36.014952 -114.895653 22 5496ft 225kts
20-Feb-21 10:41 36.062412 -114.870871 22 5481ft 219kts
20-Feb-21 10:42 36.107639 -114.894014 294 5488ft 209kts
20-Feb-21 10:43 36.125536 -114.957734 283 5495ft 178kts
20-Feb-21 10:44 36.136411 -115.013079 282 5471ft 154kts
20-Feb-21 10:45 36.145224 -115.061930 273 5465ft 138kts
20-Feb-21 10:46 36.144317 -115.106800 234 5257ft 126kts
20-Feb-21 10:47 36.122160 -115.142458 216 3314ft 128kts
20-Feb-21 10:48 36.093195 -115.160178 206 2116ft 91kts
20-Feb-21 10:49 36.083526 -115.166972 233 2165ft 0kts
20-Feb-21 10:50 36.083526 -115.166972 233 2165ft 0kts
20-Feb-21 10:51 36.082688 -115.168104 266 2168ft 0kts
20-Feb-21 10:52 36.081751 -115.170404 2 2171ft 5kts
20-Feb-21 10:53 36.081781 -115.170402 1 2171ft 0kts
20-Feb-21 10:54 36.081781 -115.170402 1 2171ft 0kts
20-Feb-21 10:55 36.081781 -115.170402 1 2171ft 0kts
20-Feb-21 10:56 36.081781 -115.170402 1 2171ft 0kts
20-Feb-21 10:57 36.081781 -115.170402 1 2171ft 0kts
20-Feb-21 10:58 36.081781 -115.170402 1 2171ft 0kts
20-Feb-21 10:59 36.081781 -115.170402 1 2171ft 0kts
20-Feb-21 11:00 36.081781 -115.170402 1 2171ft 0kts
20-Feb-21 11:01 36.081781 -115.170402 1 2171ft 0kts
20-Feb-21 11:02 36.081781 -115.170402 1 2171ft 0kts
20-Feb-21 11:03 36.081781 -115.170402 1 2171ft 0kts

Navigation Log

Ident Type
Flight plan parsing failed, navigation log unavailable